createdAt,value
2023-05-18T00:01:40.781Z,68.54
2023-05-18T00:04:10.036Z,69.13
2023-05-18T00:06:37.954Z,68.53
2023-05-18T00:09:05.592Z,69.16
2023-05-18T00:11:34.854Z,69.07
2023-05-18T00:14:03.327Z,68.23
2023-05-18T00:16:31.230Z,68.90
2023-05-18T00:18:59.459Z,69.62
2023-05-18T00:21:30.612Z,69.18
2023-05-18T00:23:58.465Z,68.85
2023-05-18T00:26:26.740Z,69.92
2023-05-18T00:28:55.908Z,70.99
2023-05-18T00:31:23.718Z,69.95
2023-05-18T00:33:51.700Z,70.03
2023-05-18T00:36:19.376Z,70.17
2023-05-18T00:38:47.061Z,71.69
2023-05-18T00:41:14.725Z,72.21
2023-05-18T00:43:43.449Z,71.95
2023-05-18T00:46:12.674Z,72.05
2023-05-18T00:48:40.440Z,71.81
2023-05-18T00:51:08.184Z,72.52
2023-05-18T00:53:37.050Z,72.12
2023-05-18T00:56:05.145Z,72.73
2023-05-18T00:58:32.869Z,72.51
2023-05-18T01:01:02.655Z,72.06
2023-05-18T01:03:31.696Z,72.02
2023-05-18T01:05:59.356Z,72.13
2023-05-18T01:08:28.331Z,71.87
2023-05-18T01:11:08.188Z,72.36
2023-05-18T01:13:42.204Z,71.54
2023-05-18T01:16:14.044Z,71.94
2023-05-18T01:18:49.126Z,71.44
2023-05-18T01:21:25.491Z,72.07
2023-05-18T01:24:09.469Z,72.39
2023-05-18T01:26:41.259Z,72.60
2023-05-18T01:29:11.484Z,72.73
2023-05-18T01:31:39.844Z,72.78
2023-05-18T01:34:07.678Z,72.35
2023-05-18T01:36:35.623Z,72.35
2023-05-18T01:39:03.645Z,72.85
2023-05-18T01:41:36.374Z,73.45
2023-05-18T01:44:12.736Z,73.86
2023-05-18T01:46:47.678Z,74.95
2023-05-18T01:49:21.700Z,75.80
2023-05-18T01:51:52.234Z,74.73
2023-05-18T01:54:22.067Z,75.55
2023-05-18T01:56:51.788Z,74.94
2023-05-18T01:59:22.182Z,74.64
2023-05-18T02:01:49.916Z,74.66
2023-05-18T02:04:17.695Z,76.06
2023-05-18T02:06:45.502Z,76.39
2023-05-18T02:09:13.291Z,76.54
2023-05-18T02:11:41.368Z,75.98
2023-05-18T02:14:09.046Z,77.13
2023-05-18T02:16:38.079Z,77.30
2023-05-18T02:19:05.903Z,77.19
2023-05-18T02:21:34.619Z,76.92
2023-05-18T02:24:02.347Z,76.77
2023-05-18T02:26:30.090Z,76.81
2023-05-18T02:28:57.690Z,76.54
2023-05-18T02:31:27.273Z,77.23
2023-05-18T02:33:57.036Z,77.81
2023-05-18T02:36:24.826Z,78.39
2023-05-18T02:38:52.675Z,77.83
2023-05-18T02:41:21.070Z,77.74
2023-05-18T02:43:48.700Z,77.02
2023-05-18T02:46:16.716Z,77.78
2023-05-18T02:48:45.652Z,78.12
2023-05-18T02:51:14.923Z,78.77
2023-05-18T02:53:44.248Z,77.85
2023-05-18T02:56:12.324Z,78.32
2023-05-18T02:58:40.107Z,78.57
2023-05-18T03:01:08.593Z,78.22
2023-05-18T03:03:36.714Z,78.09
2023-05-18T03:06:06.026Z,79.23
2023-05-18T03:08:37.052Z,79.25
2023-05-18T03:11:05.140Z,80.11
2023-05-18T03:13:33.039Z,79.73
2023-05-18T03:16:00.629Z,79.71
2023-05-18T03:18:31.484Z,79.84
2023-05-18T03:21:01.951Z,78.49
2023-05-18T03:23:30.169Z,79.07
2023-05-18T03:25:59.198Z,80.23
2023-05-18T03:28:26.879Z,80.73
2023-05-18T03:30:54.544Z,80.89
2023-05-18T03:33:22.195Z,79.45
2023-05-18T03:35:50.288Z,80.23
2023-05-18T03:38:17.977Z,79.63
2023-05-18T03:40:45.694Z,80.13
2023-05-18T03:43:14.602Z,80.51
2023-05-18T03:45:42.353Z,79.90
2023-05-18T03:48:10.175Z,81.29
2023-05-18T03:50:37.874Z,80.10
2023-05-18T03:53:05.476Z,80.09
2023-05-18T03:55:33.226Z,79.78
2023-05-18T03:58:00.925Z,80.31
2023-05-18T04:00:30.328Z,80.48
2023-05-18T04:02:57.964Z,79.67
2023-05-18T04:05:25.863Z,80.84
2023-05-18T04:07:53.454Z,81.83
2023-05-18T04:10:21.966Z,81.87
2023-05-18T04:12:50.058Z,81.01
2023-05-18T04:15:17.978Z,80.30
2023-05-18T04:17:47.145Z,80.63
2023-05-18T04:20:16.314Z,80.84
2023-05-18T04:22:48.010Z,79.55
2023-05-18T04:25:16.065Z,76.26
2023-05-18T04:27:45.308Z,72.12
2023-05-18T04:30:15.069Z,66.99
2023-05-18T04:32:43.748Z,62.32
2023-05-18T04:35:13.089Z,59.42
2023-05-18T04:37:41.291Z,56.49
2023-05-18T04:40:14.580Z,56.80
2023-05-18T04:42:45.474Z,55.49
2023-05-18T04:45:15.718Z,54.08
2023-05-18T04:47:46.507Z,51.52
2023-05-18T04:50:19.321Z,51.45
2023-05-18T04:52:49.069Z,53.18
2023-05-18T04:55:22.840Z,52.20
2023-05-18T04:57:51.097Z,51.50
2023-05-18T05:00:19.617Z,50.38
2023-05-18T05:02:47.311Z,50.12
2023-05-18T05:05:20.641Z,51.51
2023-05-18T05:07:48.392Z,49.88
2023-05-18T05:10:16.303Z,49.79
2023-05-18T05:12:43.995Z,49.59
2023-05-18T05:15:11.778Z,49.13
2023-05-18T05:17:39.512Z,50.15
2023-05-18T05:20:08.091Z,49.20
2023-05-18T05:22:37.130Z,47.30
2023-05-18T05:25:06.237Z,48.47
2023-05-18T05:27:34.241Z,46.75
2023-05-18T05:30:02.134Z,46.36
2023-05-18T05:32:29.835Z,46.38
2023-05-18T05:34:57.557Z,47.71
2023-05-18T05:37:25.333Z,46.19
2023-05-18T05:39:56.791Z,47.07
2023-05-18T05:42:25.523Z,44.43
2023-05-18T05:44:53.260Z,44.79
2023-05-18T05:47:20.888Z,46.24
2023-05-18T05:49:48.520Z,44.19
2023-05-18T05:52:16.357Z,45.13
2023-05-18T05:54:44.418Z,43.62
2023-05-18T05:57:13.377Z,42.44
2023-05-18T05:59:41.015Z,43.22
2023-05-18T06:02:08.661Z,42.64
2023-05-18T06:04:36.523Z,42.73
2023-05-18T06:07:04.359Z,43.91
2023-05-18T06:09:31.971Z,43.88
2023-05-18T06:11:59.590Z,42.35
2023-05-18T06:14:28.828Z,40.56
2023-05-18T06:17:15.006Z,40.18
2023-05-18T06:19:43.473Z,40.36
2023-05-18T06:22:11.232Z,40.34
2023-05-18T06:24:41.031Z,39.59
2023-05-18T06:27:10.250Z,37.85
2023-05-18T06:29:44.576Z,37.45
2023-05-18T06:32:14.212Z,37.29
